createdAt,value
2017-09-23T00:01:02.171Z,70.30
2017-09-23T00:03:33.841Z,70.00
2017-09-23T00:06:03.590Z,69.90
2017-09-23T00:08:47.477Z,70.20
2017-09-23T00:11:17.344Z,70.40
2017-09-23T00:13:46.076Z,70.40
2017-09-23T00:16:15.741Z,70.60
2017-09-23T00:18:44.727Z,70.60
2017-09-23T00:21:13.418Z,70.20
2017-09-23T00:23:43.541Z,70.40
2017-09-23T00:26:12.177Z,70.40
2017-09-23T00:28:43.723Z,70.30
2017-09-23T00:31:14.624Z,70.20
2017-09-23T00:33:45.489Z,69.70
2017-09-23T00:36:14.138Z,69.70
2017-09-23T00:38:42.918Z,69.50
2017-09-23T00:41:11.771Z,69.10
2017-09-23T00:43:41.418Z,69.00
2017-09-23T00:46:10.311Z,69.00
2017-09-23T00:48:39.366Z,68.60
2017-09-23T00:51:08.296Z,68.80
2017-09-23T00:53:37.287Z,69.00
2017-09-23T00:56:06.793Z,68.80
2017-09-23T00:58:35.951Z,68.50
2017-09-23T01:01:04.742Z,68.20
2017-09-23T01:03:34.596Z,68.00
2017-09-23T01:06:03.276Z,68.00
2017-09-23T01:08:32.173Z,68.00
2017-09-23T01:11:01.169Z,68.00
2017-09-23T01:13:29.962Z,68.30
2017-09-23T01:15:58.841Z,68.40
2017-09-23T01:18:27.732Z,68.60
2017-09-23T01:20:57.550Z,68.30
2017-09-23T01:23:27.469Z,68.50
2017-09-23T01:25:57.171Z,68.90
2017-09-23T01:28:27.000Z,68.90
2017-09-23T01:30:56.452Z,68.90
2017-09-23T01:33:25.454Z,68.50
2017-09-23T01:35:54.271Z,68.70
2017-09-23T01:38:23.161Z,68.60
2017-09-23T01:40:52.195Z,68.50
2017-09-23T01:43:23.201Z,68.60
2017-09-23T01:45:54.226Z,68.80
2017-09-23T01:48:30.056Z,68.90
2017-09-23T01:51:08.636Z,68.90
2017-09-23T01:53:40.062Z,68.80
2017-09-23T01:56:08.853Z,69.10
2017-09-23T01:58:37.741Z,69.30
2017-09-23T02:01:06.432Z,69.40
2017-09-23T02:03:35.215Z,69.50
2017-09-23T02:06:04.174Z,69.60
2017-09-23T02:08:32.997Z,69.40
2017-09-23T02:11:01.892Z,69.30
2017-09-23T02:13:30.778Z,69.00
2017-09-23T02:16:00.492Z,69.10
2017-09-23T02:18:29.995Z,69.10
2017-09-23T02:20:58.883Z,69.40
2017-09-23T02:23:27.719Z,69.50
2017-09-23T02:25:56.970Z,69.50
2017-09-23T02:28:27.204Z,69.30
2017-09-23T02:30:56.300Z,69.10
2017-09-23T02:33:25.293Z,69.30
2017-09-23T02:35:54.316Z,68.80
2017-09-23T02:38:23.174Z,68.80
2017-09-23T02:40:51.885Z,68.40
2017-09-23T02:43:20.937Z,68.70
2017-09-23T02:45:49.638Z,68.70
2017-09-23T02:48:18.729Z,68.80
2017-09-23T02:50:48.000Z,68.70
2017-09-23T02:53:17.748Z,68.80
2017-09-23T02:55:46.640Z,68.60
2017-09-23T02:58:15.289Z,68.50
2017-09-23T03:00:44.250Z,68.60
2017-09-23T03:03:13.002Z,68.80
2017-09-23T03:05:41.688Z,68.90
2017-09-23T03:08:10.375Z,68.80
2017-09-23T03:10:39.272Z,68.70
2017-09-23T03:13:08.879Z,69.10
2017-09-23T03:15:37.772Z,69.10
2017-09-23T03:18:06.464Z,69.00
2017-09-23T03:20:35.446Z,69.10
2017-09-23T03:23:04.233Z,68.90
2017-09-23T03:25:33.360Z,68.60
2017-09-23T03:28:03.207Z,68.70
2017-09-23T03:30:32.445Z,68.70
2017-09-23T03:33:02.535Z,68.70
2017-09-23T03:35:31.489Z,68.80
2017-09-23T03:38:00.379Z,68.50
2017-09-23T03:40:30.261Z,68.20
2017-09-23T03:42:59.087Z,68.10
2017-09-23T03:45:27.840Z,68.50
2017-09-23T03:47:56.523Z,68.70
2017-09-23T03:50:25.210Z,68.80
2017-09-23T03:52:54.102Z,68.50
2017-09-23T03:55:23.652Z,69.00
2017-09-23T03:57:52.406Z,69.00
2017-09-23T04:00:21.183Z,69.30
2017-09-23T04:02:50.690Z,69.50
2017-09-23T04:05:19.478Z,69.40
2017-09-23T04:07:48.264Z,69.60
2017-09-23T04:10:16.952Z,69.20
2017-09-23T04:12:45.946Z,68.90
2017-09-23T04:15:14.733Z,68.90
2017-09-23T04:17:44.793Z,68.80
2017-09-23T04:20:13.645Z,68.60
2017-09-23T04:22:42.534Z,68.90
2017-09-23T04:25:11.423Z,68.60
2017-09-23T04:27:40.314Z,68.00
2017-09-23T04:30:09.002Z,68.20
2017-09-23T04:32:38.215Z,68.00
2017-09-23T04:35:07.085Z,68.00
2017-09-23T04:37:37.556Z,68.50
2017-09-23T04:40:06.484Z,67.90
2017-09-23T04:42:36.531Z,68.00
2017-09-23T04:45:05.836Z,67.90
2017-09-23T04:47:34.620Z,68.10
2017-09-23T04:50:03.311Z,68.10
2017-09-23T04:52:32.139Z,68.10
2017-09-23T04:55:01.870Z,68.00
2017-09-23T04:57:30.607Z,67.90
2017-09-23T04:59:59.524Z,67.80
2017-09-23T05:02:28.381Z,67.70
2017-09-23T05:04:57.070Z,67.70
2017-09-23T05:07:25.758Z,67.80
2017-09-23T05:09:55.466Z,68.00
2017-09-23T05:12:24.396Z,67.90
2017-09-23T05:14:53.143Z,67.70
2017-09-23T05:17:21.931Z,67.50
2017-09-23T05:19:50.715Z,67.70
2017-09-23T05:22:19.709Z,68.00
2017-09-23T05:24:48.499Z,68.10
2017-09-23T05:27:17.084Z,68.10
2017-09-23T05:29:45.868Z,68.00
2017-09-23T05:32:14.691Z,68.30
2017-09-23T05:34:43.445Z,68.10
2017-09-23T05:37:12.234Z,68.00
2017-09-23T05:39:41.023Z,67.90
2017-09-23T05:42:09.850Z,68.00
2017-09-23T05:44:38.805Z,68.10
2017-09-23T05:47:07.708Z,68.10
2017-09-23T05:49:37.406Z,67.70
2017-09-23T05:52:06.503Z,67.80
2017-09-23T05:54:35.190Z,67.80
2017-09-23T05:57:03.976Z,67.70
2017-09-23T05:59:32.702Z,67.20
2017-09-23T06:02:01.459Z,67.00
2017-09-23T06:04:30.137Z,66.50
2017-09-23T06:06:59.030Z,66.30
2017-09-23T06:09:28.107Z,66.10
2017-09-23T06:11:56.811Z,66.00
2017-09-23T06:14:25.645Z,66.20
2017-09-23T06:16:54.783Z,66.20
2017-09-23T06:19:23.586Z,66.30
2017-09-23T06:21:52.629Z,66.00
2017-09-23T06:24:21.241Z,66.20
2017-09-23T06:26:49.874Z,66.50
2017-09-23T06:29:19.592Z,66.60
2017-09-23T06:31:48.305Z,66.50
2017-09-23T06:34:17.738Z,66.40
2017-09-23T06:36:46.356Z,66.40
2017-09-23T06:39:15.056Z,66.10
2017-09-23T06:41:43.721Z,65.80
2017-09-23T06:44:12.326Z,65.70
2017-09-23T06:46:42.105Z,65.80
2017-09-23T06:49:11.204Z,65.70
2017-09-23T06:51:40.400Z,65.50
2017-09-23T06:54:10.112Z,65.30
2017-09-23T06:56:39.309Z,65.30
2017-09-23T06:59:07.935Z,65.50
2017-09-23T07:01:36.679Z,65.40
2017-09-23T07:04:06.498Z,65.10
2017-09-23T07:06:36.004Z,63.60
2017-09-23T07:09:04.993Z,63.60
2017-09-23T07:11:33.884Z,63.30
2017-09-23T07:14:02.864Z,63.10
2017-09-23T07:16:31.871Z,62.70
2017-09-23T07:19:00.772Z,63.20
2017-09-23T07:21:29.659Z,61.50
2017-09-23T07:23:58.419Z,60.40
2017-09-23T07:26:28.872Z,59.00
2017-09-23T07:28:57.763Z,58.90
2017-09-23T07:31:26.452Z,58.70
2017-09-23T07:33:55.273Z,59.00
2017-09-23T07:36:24.140Z,59.00
2017-09-23T07:38:52.810Z,57.70
2017-09-23T07:41:21.597Z,58.10
2017-09-23T07:43:50.389Z,57.80
2017-09-23T07:46:19.038Z,56.90
2017-09-23T07:48:47.763Z,56.10
2017-09-23T07:51:16.959Z,55.70
2017-09-23T07:53:46.407Z,56.30
2017-09-23T07:56:15.507Z,57.50
2017-09-23T07:58:44.134Z,57.80
2017-09-23T08:01:12.963Z,58.20
2017-09-23T08:03:41.670Z,58.20
2017-09-23T08:06:10.878Z,58.50
2017-09-23T08:08:39.629Z,58.80
2017-09-23T08:11:08.418Z,58.80
2017-09-23T08:13:37.130Z,58.60
2017-09-23T08:16:05.970Z,58.40
2017-09-23T08:18:34.784Z,58.80
2017-09-23T08:21:03.650Z,58.50
2017-09-23T08:23:32.950Z,57.60
2017-09-23T08:26:02.103Z,57.10
2017-09-23T08:28:30.962Z,57.50
2017-09-23T08:31:00.138Z,58.30
2017-09-23T08:33:29.207Z,58.80
2017-09-23T08:35:59.248Z,59.10
2017-09-23T08:38:28.108Z,59.20
2017-09-23T08:40:56.815Z,59.10
2017-09-23T08:43:25.465Z,59.10
2017-09-23T08:45:54.413Z,58.70
2017-09-23T08:48:23.944Z,57.80
2017-09-23T08:50:53.109Z,56.90
2017-09-23T08:53:23.103Z,56.80
2017-09-23T08:55:53.152Z,56.60
2017-09-23T08:58:22.465Z,56.40
2017-09-23T09:00:52.158Z,56.70
2017-09-23T09:03:20.942Z,56.70
2017-09-23T09:05:50.245Z,57.30
2017-09-23T09:08:19.347Z,57.30
2017-09-23T09:10:48.539Z,57.10
2017-09-23T09:13:17.848Z,56.90
2017-09-23T09:15:47.165Z,56.70
2017-09-23T09:18:17.373Z,57.10
2017-09-23T09:20:46.718Z,57.10
2017-09-23T09:23:16.742Z,56.40
2017-09-23T09:28:21.121Z,56.50
2017-09-23T09:30:50.984Z,56.00
2017-09-23T09:33:21.661Z,55.80
2017-09-23T09:35:51.378Z,56.10
2017-09-23T09:38:20.822Z,56.30
2017-09-23T09:40:51.051Z,56.20
2017-09-23T09:43:20.280Z,56.30
2017-09-23T09:45:50.563Z,56.00
2017-09-23T09:48:20.485Z,56.30
2017-09-23T09:50:52.038Z,56.30
2017-09-23T09:53:21.459Z,55.90
2017-09-23T09:55:50.904Z,56.50
2017-09-23T09:58:19.947Z,56.20
2017-09-23T10:00:50.714Z,57.20
2017-09-23T10:03:21.196Z,57.60
2017-09-23T10:05:53.181Z,57.10
2017-09-23T10:08:27.874Z,56.50
2017-09-23T10:10:58.199Z,55.90
2017-09-23T10:13:40.556Z,55.90
2017-09-23T10:16:12.605Z,56.10
2017-09-23T10:18:44.339Z,56.00
2017-09-23T10:21:15.531Z,56.00
2017-09-23T10:23:50.994Z,55.70
2017-09-23T10:26:23.881Z,56.70
2017-09-23T10:29:00.592Z,56.90
2017-09-23T10:31:35.918Z,56.50
2017-09-23T10:34:08.487Z,57.50
2017-09-23T10:36:39.324Z,57.40
2017-09-23T10:39:10.189Z,58.00
2017-09-23T10:41:39.271Z,59.20
2017-09-23T10:44:09.395Z,58.60
2017-09-23T10:46:42.356Z,57.30
2017-09-23T10:49:13.266Z,57.90
2017-09-23T10:51:47.190Z,57.80
2017-09-23T10:54:18.034Z,58.90
2017-09-23T10:56:51.764Z,58.60
2017-09-23T10:59:24.781Z,58.60
2017-09-23T11:01:57.426Z,58.70
2017-09-23T11:04:30.916Z,58.90
2017-09-23T11:07:00.644Z,58.90
2017-09-23T11:09:30.977Z,59.50
2017-09-23T11:12:02.104Z,60.70
2017-09-23T11:14:32.100Z,60.60
2017-09-23T11:17:01.179Z,61.60
2017-09-23T11:19:30.286Z,60.70
2017-09-23T11:21:59.525Z,61.20
2017-09-23T11:24:28.827Z,61.40
2017-09-23T11:26:57.987Z,61.40
2017-09-23T11:29:27.062Z,62.20
2017-09-23T11:31:56.822Z,62.70
2017-09-23T11:34:27.265Z,63.20
2017-09-23T11:36:57.491Z,63.30
2017-09-23T11:39:28.639Z,64.70
2017-09-23T11:42:04.135Z,65.30
2017-09-23T11:44:35.220Z,65.30
2017-09-23T11:47:08.847Z,65.00
2017-09-23T11:49:39.555Z,64.70
2017-09-23T11:52:10.351Z,64.00
2017-09-23T11:54:40.921Z,64.80
2017-09-23T11:57:10.765Z,64.60
2017-09-23T11:59:39.890Z,64.60
2017-09-23T12:02:08.981Z,64.80
2017-09-23T12:04:37.882Z,63.70
2017-09-23T12:07:06.875Z,63.50
2017-09-23T12:09:35.871Z,62.80
2017-09-23T12:12:04.649Z,62.40
2017-09-23T12:14:33.959Z,64.50
2017-09-23T12:17:04.053Z,65.10
2017-09-23T12:19:41.516Z,65.50
2017-09-23T12:22:10.806Z,65.40
2017-09-23T12:24:40.064Z,65.50
2017-09-23T12:27:08.966Z,66.10
2017-09-23T12:29:38.390Z,66.20
2017-09-23T12:32:08.997Z,66.80
2017-09-23T12:34:54.989Z,67.10
2017-09-23T12:37:24.023Z,67.10
2017-09-23T12:39:53.289Z,67.20
2017-09-23T12:42:22.277Z,66.30
2017-09-23T12:44:51.346Z,66.20
2017-09-23T12:47:20.148Z,66.40
2017-09-23T12:49:49.054Z,65.50
2017-09-23T12:52:18.136Z,64.00
2017-09-23T12:54:47.022Z,66.30
2017-09-23T12:57:16.277Z,66.10
2017-09-23T12:59:45.322Z,65.50
2017-09-23T13:02:14.425Z,63.80
2017-09-23T13:04:43.104Z,64.10
2017-09-23T13:07:12.121Z,63.20
2017-09-23T13:09:41.096Z,62.70
2017-09-23T13:12:13.052Z,64.40
2017-09-23T13:14:41.950Z,62.90
2017-09-23T13:17:10.949Z,60.60
2017-09-23T13:19:39.860Z,60.20
2017-09-23T13:22:08.789Z,58.80
2017-09-23T13:24:37.713Z,57.00
2017-09-23T13:27:07.078Z,54.90
2017-09-23T13:29:37.452Z,54.80
2017-09-23T13:32:06.743Z,54.70
2017-09-23T13:34:35.632Z,56.50
2017-09-23T13:37:05.157Z,58.10
2017-09-23T13:39:34.233Z,59.70
2017-09-23T13:42:02.898Z,60.00
2017-09-23T13:44:32.341Z,57.80
2017-09-23T13:47:01.355Z,55.50
2017-09-23T13:49:30.246Z,56.70
2017-09-23T13:51:59.868Z,58.10
2017-09-23T13:54:29.545Z,57.10
2017-09-23T13:57:00.544Z,57.00
2017-09-23T13:59:30.176Z,56.30
2017-09-23T14:02:00.678Z,57.00
2017-09-23T14:04:31.928Z,58.70
2017-09-23T14:07:04.809Z,60.30
2017-09-23T14:09:35.312Z,60.60
2017-09-23T14:12:04.626Z,62.30
2017-09-23T14:14:34.840Z,62.70
2017-09-23T14:17:05.201Z,62.30
2017-09-23T14:19:34.620Z,63.30
2017-09-23T14:22:04.121Z,64.40
2017-09-23T14:24:33.153Z,64.70
2017-09-23T14:27:02.676Z,64.90
2017-09-23T14:29:32.574Z,65.50
2017-09-23T14:32:02.223Z,66.50
2017-09-23T14:34:32.222Z,66.90
2017-09-23T14:37:02.774Z,66.90
2017-09-23T14:39:32.015Z,67.00
2017-09-23T14:42:01.948Z,67.30
2017-09-23T14:44:31.501Z,67.80
2017-09-23T14:47:01.088Z,67.80
2017-09-23T14:49:31.490Z,67.60
2017-09-23T14:52:00.494Z,67.30
2017-09-23T14:54:31.093Z,68.00
2017-09-23T14:57:03.101Z,68.90
2017-09-23T14:59:32.340Z,69.60
2017-09-23T15:02:02.878Z,70.20
2017-09-23T15:04:32.514Z,70.30
2017-09-23T15:07:01.942Z,70.30
2017-09-23T15:09:32.098Z,70.00
2017-09-23T15:12:01.317Z,69.70
2017-09-23T15:14:31.210Z,69.70
2017-09-23T15:17:00.749Z,69.30
2017-09-23T15:19:31.392Z,69.20
2017-09-23T15:22:01.306Z,70.20
2017-09-23T15:24:31.283Z,71.50
2017-09-23T15:27:00.398Z,71.40
2017-09-23T15:29:29.549Z,70.80
2017-09-23T15:31:58.596Z,70.40
2017-09-23T15:34:27.841Z,70.50
2017-09-23T15:36:56.863Z,69.80
2017-09-23T15:39:25.761Z,69.90
2017-09-23T15:41:54.720Z,69.80
2017-09-23T15:44:23.863Z,69.90
2017-09-23T15:46:53.117Z,70.00
2017-09-23T15:49:22.592Z,69.50
2017-09-23T15:51:53.703Z,69.50
2017-09-23T15:54:23.504Z,70.40
2017-09-23T15:56:53.165Z,70.40
2017-09-23T15:59:22.626Z,70.40
2017-09-23T16:01:58.056Z,69.50
2017-09-23T16:04:28.388Z,69.50
2017-09-23T16:06:57.887Z,69.30
2017-09-23T16:09:27.333Z,69.80
2017-09-23T16:12:02.193Z,70.00
2017-09-23T16:14:31.322Z,69.10
2017-09-23T16:17:00.348Z,69.40
2017-09-23T16:19:30.319Z,69.30
2017-09-23T16:21:59.884Z,69.30
2017-09-23T16:24:39.449Z,69.50
2017-09-23T16:27:16.588Z,69.50
2017-09-23T16:29:45.986Z,69.60
2017-09-23T16:32:15.206Z,69.60
2017-09-23T16:34:44.375Z,70.10
2017-09-23T16:37:13.369Z,70.60
2017-09-23T16:39:42.627Z,71.00
2017-09-23T16:42:12.217Z,71.00
2017-09-23T16:44:42.249Z,71.00
2017-09-23T16:49:46.629Z,70.80
2017-09-23T16:52:16.660Z,70.60
2017-09-23T16:54:45.632Z,70.60
2017-09-23T16:57:15.013Z,70.30
2017-09-23T16:59:44.032Z,71.00
2017-09-23T17:02:14.871Z,71.40
2017-09-23T17:04:44.191Z,71.30
2017-09-23T17:07:13.134Z,70.80
2017-09-23T17:09:42.562Z,70.40
2017-09-23T17:12:12.585Z,71.40
2017-09-23T17:14:41.778Z,71.30
2017-09-23T17:17:11.148Z,71.50
2017-09-23T17:19:40.694Z,71.20
2017-09-23T17:22:09.533Z,71.00
2017-09-23T17:24:38.754Z,72.20
2017-09-23T17:27:07.866Z,71.70
2017-09-23T17:29:37.537Z,71.80
2017-09-23T17:32:06.802Z,72.30
2017-09-23T17:34:35.881Z,72.70
2017-09-23T17:37:04.770Z,72.70
2017-09-23T17:39:33.866Z,72.90
2017-09-23T17:42:02.856Z,73.60
2017-09-23T17:44:32.136Z,73.90
2017-09-23T17:47:01.162Z,73.80
2017-09-23T17:49:30.147Z,73.80
2017-09-23T17:52:00.342Z,74.20
2017-09-23T17:54:30.085Z,74.10
2017-09-23T17:56:59.376Z,74.50
2017-09-23T17:59:28.771Z,74.10
2017-09-23T18:01:57.925Z,73.70
2017-09-23T18:04:28.006Z,73.90
2017-09-23T18:06:57.941Z,73.80
2017-09-23T18:09:28.075Z,74.00
2017-09-23T18:11:57.333Z,73.90
2017-09-23T18:14:26.483Z,74.10
2017-09-23T18:16:56.855Z,74.40
2017-09-23T18:19:26.576Z,74.50
2017-09-23T18:21:56.354Z,75.40
2017-09-23T18:24:25.164Z,75.30
2017-09-23T18:26:55.188Z,75.60
2017-09-23T18:29:25.519Z,75.70
2017-09-23T18:31:55.531Z,75.90
2017-09-23T18:34:27.845Z,76.60
2017-09-23T18:37:02.860Z,76.60
2017-09-23T18:39:32.349Z,76.90
2017-09-23T18:42:01.884Z,77.10
2017-09-23T18:44:31.962Z,77.20
2017-09-23T18:47:01.669Z,77.90
2017-09-23T18:49:31.227Z,77.90
2017-09-23T18:52:02.389Z,77.90
2017-09-23T18:54:31.933Z,77.90
2017-09-23T18:57:01.123Z,78.10
2017-09-23T18:59:30.506Z,78.20
2017-09-23T19:02:01.018Z,78.20
2017-09-23T19:04:30.590Z,78.00
2017-09-23T19:07:01.031Z,78.00
2017-09-23T19:09:29.991Z,78.10
2017-09-23T19:11:59.853Z,78.10
2017-09-23T19:14:30.956Z,78.30
2017-09-23T19:16:59.790Z,78.40
2017-09-23T19:19:29.115Z,78.50
2017-09-23T19:21:58.648Z,78.50
2017-09-23T19:24:27.845Z,78.50
2017-09-23T19:26:59.059Z,78.90
2017-09-23T19:29:27.873Z,78.80
2017-09-23T19:31:56.996Z,78.70
2017-09-23T19:34:25.860Z,78.80
2017-09-23T19:36:54.766Z,78.80
2017-09-23T19:39:23.555Z,78.90
2017-09-23T19:41:52.638Z,78.90
2017-09-23T19:44:21.679Z,78.90
2017-09-23T19:46:51.329Z,78.80
2017-09-23T19:49:20.198Z,78.70
2017-09-23T19:51:48.966Z,78.90
2017-09-23T19:54:19.051Z,79.00
2017-09-23T19:56:47.919Z,79.00
2017-09-23T19:59:17.639Z,78.90
2017-09-23T20:01:46.530Z,78.90
2017-09-23T20:04:16.393Z,78.90
2017-09-23T20:06:45.493Z,79.10
2017-09-23T20:09:14.433Z,79.10
2017-09-23T20:11:43.269Z,79.20
2017-09-23T20:14:12.216Z,79.00
2017-09-23T20:16:41.338Z,79.20
2017-09-23T20:19:10.300Z,79.00
2017-09-23T20:21:39.778Z,79.00
2017-09-23T20:24:10.640Z,79.10
2017-09-23T20:26:39.332Z,79.00
2017-09-23T20:29:08.220Z,79.50
2017-09-23T20:31:38.055Z,79.00
2017-09-23T20:34:07.753Z,79.00
2017-09-23T20:36:36.938Z,79.10
2017-09-23T20:39:06.336Z,79.20
2017-09-23T20:41:35.470Z,79.30
2017-09-23T20:44:04.436Z,79.30
2017-09-23T20:46:33.520Z,79.30
2017-09-23T20:49:02.596Z,79.40
2017-09-23T20:51:32.755Z,79.30
2017-09-23T20:54:01.636Z,79.30
2017-09-23T20:56:30.834Z,79.60
2017-09-23T20:58:59.941Z,79.60
2017-09-23T21:01:29.023Z,79.60
2017-09-23T21:03:58.158Z,79.50
2017-09-23T21:06:26.975Z,79.50
2017-09-23T21:08:56.009Z,79.50
2017-09-23T21:11:25.512Z,79.20
2017-09-23T21:13:54.310Z,79.30
2017-09-23T21:16:23.699Z,79.20
2017-09-23T21:18:52.645Z,79.20
2017-09-23T21:21:21.386Z,79.10
2017-09-23T21:23:50.491Z,79.10
2017-09-23T21:26:19.890Z,79.00
2017-09-23T21:28:50.236Z,79.00
2017-09-23T21:31:20.334Z,78.80
2017-09-23T21:33:49.730Z,78.70
2017-09-23T21:36:18.577Z,78.70
2017-09-23T21:38:50.828Z,78.70
2017-09-23T21:41:19.884Z,78.80
2017-09-23T21:43:48.776Z,78.70
2017-09-23T21:46:17.997Z,78.80
2017-09-23T21:48:47.832Z,78.70
2017-09-23T21:51:17.708Z,78.70
2017-09-23T21:53:46.918Z,78.70
2017-09-23T21:56:16.099Z,78.80
2017-09-23T21:58:45.808Z,78.70
2017-09-23T22:01:15.393Z,78.70
2017-09-23T22:03:44.703Z,78.60
2017-09-23T22:06:14.801Z,78.60
2017-09-23T22:08:45.807Z,78.50
2017-09-23T22:11:16.513Z,78.50
2017-09-23T22:13:45.418Z,78.50
2017-09-23T22:16:14.300Z,78.30
2017-09-23T22:18:43.389Z,78.40
2017-09-23T22:21:12.863Z,78.40
2017-09-23T22:23:43.023Z,78.60
2017-09-23T22:26:13.283Z,78.70
2017-09-23T22:28:42.604Z,78.70
2017-09-23T22:31:12.819Z,78.60
2017-09-23T22:33:43.459Z,78.60
2017-09-23T22:36:13.906Z,78.60
2017-09-23T22:38:44.226Z,78.50
2017-09-23T22:41:15.053Z,78.50
2017-09-23T22:43:45.042Z,78.60
2017-09-23T22:46:14.606Z,78.70
2017-09-23T22:48:43.442Z,78.60
2017-09-23T22:51:13.429Z,78.90
2017-09-23T22:53:42.721Z,78.60
2017-09-23T22:56:11.700Z,78.70
2017-09-23T22:58:41.003Z,78.80
2017-09-23T23:01:10.141Z,78.90
2017-09-23T23:03:39.091Z,78.90
2017-09-23T23:06:08.537Z,78.90
2017-09-23T23:08:38.436Z,78.90
2017-09-23T23:11:07.505Z,78.80
2017-09-23T23:13:37.435Z,78.90
2017-09-23T23:16:06.729Z,79.00
2017-09-23T23:18:35.930Z,79.00
2017-09-23T23:21:05.937Z,79.00
2017-09-23T23:23:34.807Z,79.10
2017-09-23T23:26:03.577Z,79.10
2017-09-23T23:28:32.611Z,79.20
2017-09-23T23:31:01.528Z,79.30
2017-09-23T23:33:30.603Z,79.30
2017-09-23T23:35:59.795Z,79.40
2017-09-23T23:38:30.839Z,80.10
2017-09-23T23:40:59.851Z,79.40
2017-09-23T23:43:28.726Z,79.50
2017-09-23T23:45:57.525Z,79.80
2017-09-23T23:48:27.593Z,79.30
2017-09-23T23:50:57.069Z,79.70
2017-09-23T23:53:26.051Z,79.60
2017-09-23T23:55:56.194Z,79.70
2017-09-23T23:58:26.166Z,79.70
